sensor_id;sensor_type;location;lat;lon;timestamp;P1;durP1;ratioP1;P2;durP2;ratioP2
25627;SDS011;40915;50.826;4.356;2023-03-01T00:00:15;11.93;;;7.60;;
25627;SDS011;40915;50.826;4.356;2023-03-01T00:02:41;14.47;;;8.20;;
25627;SDS011;40915;50.826;4.356;2023-03-01T00:05:06;13.77;;;8.23;;
25627;SDS011;40915;50.826;4.356;2023-03-01T00:07:32;14.53;;;7.80;;
25627;SDS011;40915;50.826;4.356;2023-03-01T00:09:58;11.07;;;7.50;;
25627;SDS011;40915;50.826;4.356;2023-03-01T00:12:23;11.63;;;7.40;;
25627;SDS011;40915;50.826;4.356;2023-03-01T00:14:49;11.53;;;6.90;;
25627;SDS011;40915;50.826;4.356;2023-03-01T00:17:16;10.50;;;7.27;;
25627;SDS011;40915;50.826;4.356;2023-03-01T00:19:42;10.53;;;7.07;;
25627;SDS011;40915;50.826;4.356;2023-03-01T00:22:07;11.23;;;6.33;;
25627;SDS011;40915;50.826;4.356;2023-03-01T00:24:33;8.97;;;6.17;;
25627;SDS011;40915;50.826;4.356;2023-03-01T00:26:58;11.13;;;6.47;;
25627;SDS011;40915;50.826;4.356;2023-03-01T00:29:24;9.70;;;6.03;;
25627;SDS011;40915;50.826;4.356;2023-03-01T00:31:50;9.93;;;6.00;;
25627;SDS011;40915;50.826;4.356;2023-03-01T00:34:16;10.53;;;6.67;;
25627;SDS011;40915;50.826;4.356;2023-03-01T00:36:41;7.83;;;5.67;;
25627;SDS011;40915;50.826;4.356;2023-03-01T00:39:09;7.57;;;5.80;;
25627;SDS011;40915;50.826;4.356;2023-03-01T00:41:37;8.83;;;6.27;;
25627;SDS011;40915;50.826;4.356;2023-03-01T00:44:02;7.47;;;5.73;;
25627;SDS011;40915;50.826;4.356;2023-03-01T00:46:28;8.50;;;5.80;;
25627;SDS011;40915;50.826;4.356;2023-03-01T00:48:55;10.20;;;5.63;;
25627;SDS011;40915;50.826;4.356;2023-03-01T00:51:25;8.13;;;5.80;;
25627;SDS011;40915;50.826;4.356;2023-03-01T00:53:53;8.80;;;6.23;;
25627;SDS011;40915;50.826;4.356;2023-03-01T00:56:21;7.83;;;5.73;;
25627;SDS011;40915;50.826;4.356;2023-03-01T00:58:49;9.17;;;7.03;;
25627;SDS011;40915;50.826;4.356;2023-03-01T01:01:16;7.90;;;5.43;;
25627;SDS011;40915;50.826;4.356;2023-03-01T01:06:21;8.97;;;6.07;;
25627;SDS011;40915;50.826;4.356;2023-03-01T01:08:49;9.20;;;5.93;;
25627;SDS011;40915;50.826;4.356;2023-03-01T01:11:16;7.97;;;6.20;;
25627;SDS011;40915;50.826;4.356;2023-03-01T01:13:43;10.03;;;6.57;;
25627;SDS011;40915;50.826;4.356;2023-03-01T01:16:10;8.63;;;6.30;;
25627;SDS011;40915;50.826;4.356;2023-03-01T01:18:36;8.33;;;6.20;;
25627;SDS011;40915;50.826;4.356;2023-03-01T01:21:13;9.63;;;6.23;;
25627;SDS011;40915;50.826;4.356;2023-03-01T01:23:41;7.13;;;5.90;;
25627;SDS011;40915;50.826;4.356;2023-03-01T01:26:09;10.53;;;6.27;;
25627;SDS011;40915;50.826;4.356;2023-03-01T01:28:37;7.67;;;5.90;;
25627;SDS011;40915;50.826;4.356;2023-03-01T01:31:03;8.53;;;6.07;;
25627;SDS011;40915;50.826;4.356;2023-03-01T01:33:29;8.80;;;5.77;;
25627;SDS011;40915;50.826;4.356;2023-03-01T01:35:56;9.43;;;6.23;;
25627;SDS011;40915;50.826;4.356;2023-03-01T01:38:21;10.67;;;5.93;;
25627;SDS011;40915;50.826;4.356;2023-03-01T01:40:49;9.97;;;6.37;;
25627;SDS011;40915;50.826;4.356;2023-03-01T01:43:41;7.67;;;5.83;;
25627;SDS011;40915;50.826;4.356;2023-03-01T01:46:22;8.47;;;6.30;;
25627;SDS011;40915;50.826;4.356;2023-03-01T01:49:00;8.30;;;6.30;;
25627;SDS011;40915;50.826;4.356;2023-03-01T01:51:31;7.90;;;5.90;;
25627;SDS011;40915;50.826;4.356;2023-03-01T01:54:06;11.23;;;6.90;;
25627;SDS011;40915;50.826;4.356;2023-03-01T01:56:39;11.27;;;6.10;;
25627;SDS011;40915;50.826;4.356;2023-03-01T01:59:09;8.00;;;6.03;;
25627;SDS011;40915;50.826;4.356;2023-03-01T02:01:36;9.33;;;6.00;;
25627;SDS011;40915;50.826;4.356;2023-03-01T02:04:01;8.77;;;5.60;;
25627;SDS011;40915;50.826;4.356;2023-03-01T02:06:31;7.27;;;5.77;;
25627;SDS011;40915;50.826;4.356;2023-03-01T02:09:11;7.70;;;5.60;;
25627;SDS011;40915;50.826;4.356;2023-03-01T02:11:39;9.17;;;5.97;;
25627;SDS011;40915;50.826;4.356;2023-03-01T02:14:05;8.77;;;6.17;;
25627;SDS011;40915;50.826;4.356;2023-03-01T02:16:31;8.23;;;5.90;;
25627;SDS011;40915;50.826;4.356;2023-03-01T02:18:58;7.67;;;5.97;;
25627;SDS011;40915;50.826;4.356;2023-03-01T02:21:33;8.40;;;6.27;;
25627;SDS011;40915;50.826;4.356;2023-03-01T02:27:09;9.40;;;5.97;;
25627;SDS011;40915;50.826;4.356;2023-03-01T02:29:36;8.13;;;5.70;;
25627;SDS011;40915;50.826;4.356;2023-03-01T02:32:02;8.53;;;6.00;;
25627;SDS011;40915;50.826;4.356;2023-03-01T02:34:28;7.50;;;5.60;;
25627;SDS011;40915;50.826;4.356;2023-03-01T02:36:58;7.60;;;6.07;;
25627;SDS011;40915;50.826;4.356;2023-03-01T02:39:29;9.40;;;6.60;;
25627;SDS011;40915;50.826;4.356;2023-03-01T02:42:01;10.73;;;6.73;;
25627;SDS011;40915;50.826;4.356;2023-03-01T02:44:29;7.47;;;5.97;;
25627;SDS011;40915;50.826;4.356;2023-03-01T02:46:55;9.93;;;6.33;;
25627;SDS011;40915;50.826;4.356;2023-03-01T02:57:05;10.17;;;6.17;;
25627;SDS011;40915;50.826;4.356;2023-03-01T02:59:32;10.13;;;6.47;;
25627;SDS011;40915;50.826;4.356;2023-03-01T03:02:04;8.97;;;6.70;;
25627;SDS011;40915;50.826;4.356;2023-03-01T03:04:45;8.67;;;6.30;;
25627;SDS011;40915;50.826;4.356;2023-03-01T03:07:10;7.63;;;5.87;;
25627;SDS011;40915;50.826;4.356;2023-03-01T03:09:36;8.60;;;6.03;;
25627;SDS011;40915;50.826;4.356;2023-03-01T03:12:01;8.80;;;6.20;;
25627;SDS011;40915;50.826;4.356;2023-03-01T03:14:27;8.83;;;6.37;;
25627;SDS011;40915;50.826;4.356;2023-03-01T03:16:53;9.17;;;6.17;;
25627;SDS011;40915;50.826;4.356;2023-03-01T03:19:18;8.40;;;6.10;;
25627;SDS011;40915;50.826;4.356;2023-03-01T03:21:44;8.50;;;6.47;;
25627;SDS011;40915;50.826;4.356;2023-03-01T03:24:10;7.87;;;5.97;;
25627;SDS011;40915;50.826;4.356;2023-03-01T03:26:36;9.30;;;6.80;;
25627;SDS011;40915;50.826;4.356;2023-03-01T03:29:02;9.67;;;6.93;;
25627;SDS011;40915;50.826;4.356;2023-03-01T03:31:27;11.73;;;7.10;;
25627;SDS011;40915;50.826;4.356;2023-03-01T03:33:53;9.83;;;7.07;;
25627;SDS011;40915;50.826;4.356;2023-03-01T03:36:20;8.97;;;6.40;;
25627;SDS011;40915;50.826;4.356;2023-03-01T03:38:47;8.43;;;6.57;;
25627;SDS011;40915;50.826;4.356;2023-03-01T03:41:14;8.53;;;6.80;;
25627;SDS011;40915;50.826;4.356;2023-03-01T03:43:41;9.07;;;5.93;;
25627;SDS011;40915;50.826;4.356;2023-03-01T03:46:09;9.70;;;6.23;;
25627;SDS011;40915;50.826;4.356;2023-03-01T03:48:36;9.87;;;6.57;;
25627;SDS011;40915;50.826;4.356;2023-03-01T03:51:06;8.80;;;6.23;;
25627;SDS011;40915;50.826;4.356;2023-03-01T03:53:34;9.53;;;6.33;;
25627;SDS011;40915;50.826;4.356;2023-03-01T03:56:00;10.30;;;6.47;;
25627;SDS011;40915;50.826;4.356;2023-03-01T03:58:26;8.47;;;6.20;;
25627;SDS011;40915;50.826;4.356;2023-03-01T04:00:53;8.67;;;7.03;;
25627;SDS011;40915;50.826;4.356;2023-03-01T04:03:23;9.47;;;6.50;;
25627;SDS011;40915;50.826;4.356;2023-03-01T04:05:50;8.00;;;6.43;;
25627;SDS011;40915;50.826;4.356;2023-03-01T04:08:17;7.57;;;6.23;;
25627;SDS011;40915;50.826;4.356;2023-03-01T04:10:47;8.80;;;6.37;;
25627;SDS011;40915;50.826;4.356;2023-03-01T04:13:17;11.27;;;6.47;;
25627;SDS011;40915;50.826;4.356;2023-03-01T04:15:45;9.90;;;6.37;;
25627;SDS011;40915;50.826;4.356;2023-03-01T04:18:12;9.03;;;6.73;;
25627;SDS011;40915;50.826;4.356;2023-03-01T04:20:39;7.93;;;6.77;;
25627;SDS011;40915;50.826;4.356;2023-03-01T04:23:07;9.33;;;6.07;;
25627;SDS011;40915;50.826;4.356;2023-03-01T04:30:51;10.07;;;6.73;;
25627;SDS011;40915;50.826;4.356;2023-03-01T04:33:17;9.33;;;6.23;;
25627;SDS011;40915;50.826;4.356;2023-03-01T04:35:43;10.57;;;6.67;;
25627;SDS011;40915;50.826;4.356;2023-03-01T04:38:09;10.90;;;6.47;;
25627;SDS011;40915;50.826;4.356;2023-03-01T04:40:35;10.03;;;6.27;;
25627;SDS011;40915;50.826;4.356;2023-03-01T04:43:01;10.83;;;7.43;;
25627;SDS011;40915;50.826;4.356;2023-03-01T04:45:28;12.67;;;7.40;;
25627;SDS011;40915;50.826;4.356;2023-03-01T04:47:54;9.53;;;6.53;;
25627;SDS011;40915;50.826;4.356;2023-03-01T04:50:19;9.17;;;6.87;;
25627;SDS011;40915;50.826;4.356;2023-03-01T04:52:46;11.07;;;6.53;;
25627;SDS011;40915;50.826;4.356;2023-03-01T04:55:12;12.40;;;6.83;;
25627;SDS011;40915;50.826;4.356;2023-03-01T04:57:38;10.93;;;6.87;;
25627;SDS011;40915;50.826;4.356;2023-03-01T05:00:06;12.53;;;7.17;;
25627;SDS011;40915;50.826;4.356;2023-03-01T05:02:52;12.70;;;6.53;;
25627;SDS011;40915;50.826;4.356;2023-03-01T05:05:30;9.40;;;6.47;;
25627;SDS011;40915;50.826;4.356;2023-03-01T05:07:58;9.40;;;6.40;;
25627;SDS011;40915;50.826;4.356;2023-03-01T05:10:32;10.00;;;6.23;;
25627;SDS011;40915;50.826;4.356;2023-03-01T05:13:00;11.37;;;7.07;;
25627;SDS011;40915;50.826;4.356;2023-03-01T05:15:26;10.80;;;6.40;;
25627;SDS011;40915;50.826;4.356;2023-03-01T05:17:54;12.13;;;6.43;;
25627;SDS011;40915;50.826;4.356;2023-03-01T05:20:20;12.47;;;7.03;;
25627;SDS011;40915;50.826;4.356;2023-03-01T05:22:50;11.83;;;6.97;;
25627;SDS011;40915;50.826;4.356;2023-03-01T05:25:16;13.50;;;7.30;;
25627;SDS011;40915;50.826;4.356;2023-03-01T05:27:42;10.33;;;6.63;;
25627;SDS011;40915;50.826;4.356;2023-03-01T05:30:08;10.07;;;6.50;;
25627;SDS011;40915;50.826;4.356;2023-03-01T05:32:41;11.07;;;6.60;;
25627;SDS011;40915;50.826;4.356;2023-03-01T05:35:11;13.13;;;6.53;;
25627;SDS011;40915;50.826;4.356;2023-03-01T05:37:39;10.00;;;6.63;;
25627;SDS011;40915;50.826;4.356;2023-03-01T05:40:06;9.87;;;6.63;;
25627;SDS011;40915;50.826;4.356;2023-03-01T05:42:41;9.07;;;7.17;;
25627;SDS011;40915;50.826;4.356;2023-03-01T05:45:30;10.07;;;6.90;;
25627;SDS011;40915;50.826;4.356;2023-03-01T05:47:57;11.60;;;7.53;;
25627;SDS011;40915;50.826;4.356;2023-03-01T05:50:27;10.47;;;6.90;;
25627;SDS011;40915;50.826;4.356;2023-03-01T05:52:58;10.97;;;7.70;;
25627;SDS011;40915;50.826;4.356;2023-03-01T05:55:29;8.83;;;6.67;;
25627;SDS011;40915;50.826;4.356;2023-03-01T05:57:57;12.43;;;8.07;;
25627;SDS011;40915;50.826;4.356;2023-03-01T06:00:26;9.90;;;7.60;;
25627;SDS011;40915;50.826;4.356;2023-03-01T06:02:53;10.77;;;7.83;;
25627;SDS011;40915;50.826;4.356;2023-03-01T06:05:19;10.63;;;7.37;;
25627;SDS011;40915;50.826;4.356;2023-03-01T06:07:45;10.60;;;7.50;;
25627;SDS011;40915;50.826;4.356;2023-03-01T06:10:11;10.70;;;7.30;;
25627;SDS011;40915;50.826;4.356;2023-03-01T06:12:38;10.27;;;7.17;;
25627;SDS011;40915;50.826;4.356;2023-03-01T06:15:06;11.60;;;7.63;;
25627;SDS011;40915;50.826;4.356;2023-03-01T06:17:35;12.50;;;7.73;;
25627;SDS011;40915;50.826;4.356;2023-03-01T06:20:06;11.90;;;7.57;;
25627;SDS011;40915;50.826;4.356;2023-03-01T06:22:37;9.83;;;7.17;;
25627;SDS011;40915;50.826;4.356;2023-03-01T06:25:03;10.33;;;7.50;;
25627;SDS011;40915;50.826;4.356;2023-03-01T06:27:29;11.20;;;7.10;;
25627;SDS011;40915;50.826;4.356;2023-03-01T06:29:55;8.33;;;6.90;;
25627;SDS011;40915;50.826;4.356;2023-03-01T06:32:20;10.20;;;7.40;;
25627;SDS011;40915;50.826;4.356;2023-03-01T06:34:46;10.27;;;7.33;;
25627;SDS011;40915;50.826;4.356;2023-03-01T06:37:11;10.10;;;7.47;;
25627;SDS011;40915;50.826;4.356;2023-03-01T06:39:37;10.73;;;7.20;;
25627;SDS011;40915;50.826;4.356;2023-03-01T06:42:03;12.23;;;7.73;;
25627;SDS011;40915;50.826;4.356;2023-03-01T06:44:29;17.63;;;7.47;;
25627;SDS011;40915;50.826;4.356;2023-03-01T06:46:54;13.30;;;7.80;;
25627;SDS011;40915;50.826;4.356;2023-03-01T06:49:20;10.03;;;7.43;;
25627;SDS011;40915;50.826;4.356;2023-03-01T06:51:46;10.30;;;7.67;;
25627;SDS011;40915;50.826;4.356;2023-03-01T06:54:12;12.90;;;7.97;;
25627;SDS011;40915;50.826;4.356;2023-03-01T06:56:38;12.27;;;7.17;;
25627;SDS011;40915;50.826;4.356;2023-03-01T06:59:04;13.23;;;7.70;;
25627;SDS011;40915;50.826;4.356;2023-03-01T07:01:30;12.17;;;7.43;;
25627;SDS011;40915;50.826;4.356;2023-03-01T07:03:56;12.80;;;7.33;;
25627;SDS011;40915;50.826;4.356;2023-03-01T07:06:22;9.93;;;7.60;;
25627;SDS011;40915;50.826;4.356;2023-03-01T07:08:48;10.70;;;7.40;;
25627;SDS011;40915;50.826;4.356;2023-03-01T07:11:14;14.20;;;8.40;;
25627;SDS011;40915;50.826;4.356;2023-03-01T07:13:40;11.90;;;6.90;;
25627;SDS011;40915;50.826;4.356;2023-03-01T07:16:05;12.93;;;7.17;;
25627;SDS011;40915;50.826;4.356;2023-03-01T07:18:31;8.67;;;6.53;;
25627;SDS011;40915;50.826;4.356;2023-03-01T07:20:57;9.93;;;6.30;;
25627;SDS011;40915;50.826;4.356;2023-03-01T07:23:23;17.10;;;7.87;;
25627;SDS011;40915;50.826;4.356;2023-03-01T07:25:52;11.80;;;6.80;;
25627;SDS011;40915;50.826;4.356;2023-03-01T07:28:18;10.77;;;6.30;;
25627;SDS011;40915;50.826;4.356;2023-03-01T07:30:44;11.00;;;7.20;;
25627;SDS011;40915;50.826;4.356;2023-03-01T07:33:09;9.87;;;6.97;;
25627;SDS011;40915;50.826;4.356;2023-03-01T07:35:35;11.10;;;7.57;;
25627;SDS011;40915;50.826;4.356;2023-03-01T07:38:00;11.20;;;7.40;;
25627;SDS011;40915;50.826;4.356;2023-03-01T07:40:26;9.73;;;6.83;;
25627;SDS011;40915;50.826;4.356;2023-03-01T07:42:55;13.03;;;7.10;;
25627;SDS011;40915;50.826;4.356;2023-03-01T07:45:21;16.43;;;7.57;;
25627;SDS011;40915;50.826;4.356;2023-03-01T07:47:47;13.93;;;7.50;;
25627;SDS011;40915;50.826;4.356;2023-03-01T07:50:12;16.37;;;7.53;;
25627;SDS011;40915;50.826;4.356;2023-03-01T07:52:38;14.33;;;7.90;;
25627;SDS011;40915;50.826;4.356;2023-03-01T07:55:04;11.37;;;7.77;;
25627;SDS011;40915;50.826;4.356;2023-03-01T07:57:30;16.00;;;7.90;;
25627;SDS011;40915;50.826;4.356;2023-03-01T07:59:56;13.90;;;7.87;;
25627;SDS011;40915;50.826;4.356;2023-03-01T08:02:22;10.47;;;7.60;;
25627;SDS011;40915;50.826;4.356;2023-03-01T08:04:48;12.93;;;7.87;;
25627;SDS011;40915;50.826;4.356;2023-03-01T08:07:13;12.37;;;7.87;;
25627;SDS011;40915;50.826;4.356;2023-03-01T08:09:39;13.60;;;7.67;;
25627;SDS011;40915;50.826;4.356;2023-03-01T08:12:05;12.13;;;7.57;;
25627;SDS011;40915;50.826;4.356;2023-03-01T08:14:31;12.97;;;7.33;;
25627;SDS011;40915;50.826;4.356;2023-03-01T08:16:57;14.13;;;8.37;;
25627;SDS011;40915;50.826;4.356;2023-03-01T08:19:23;12.87;;;7.80;;
25627;SDS011;40915;50.826;4.356;2023-03-01T08:21:48;11.20;;;8.00;;
25627;SDS011;40915;50.826;4.356;2023-03-01T08:24:15;14.40;;;7.90;;
25627;SDS011;40915;50.826;4.356;2023-03-01T08:26:41;11.93;;;7.90;;
25627;SDS011;40915;50.826;4.356;2023-03-01T08:29:06;11.90;;;7.93;;
25627;SDS011;40915;50.826;4.356;2023-03-01T08:31:34;10.90;;;8.07;;
25627;SDS011;40915;50.826;4.356;2023-03-01T08:34:03;12.73;;;8.00;;
25627;SDS011;40915;50.826;4.356;2023-03-01T08:36:37;11.00;;;7.10;;
25627;SDS011;40915;50.826;4.356;2023-03-01T08:39:05;15.93;;;8.70;;
25627;SDS011;40915;50.826;4.356;2023-03-01T08:41:31;14.10;;;7.93;;
25627;SDS011;40915;50.826;4.356;2023-03-01T08:43:58;11.63;;;7.83;;
25627;SDS011;40915;50.826;4.356;2023-03-01T08:46:25;11.90;;;7.73;;
25627;SDS011;40915;50.826;4.356;2023-03-01T08:48:52;16.30;;;8.70;;
25627;SDS011;40915;50.826;4.356;2023-03-01T08:51:18;13.17;;;8.57;;
25627;SDS011;40915;50.826;4.356;2023-03-01T08:53:45;17.20;;;8.20;;
25627;SDS011;40915;50.826;4.356;2023-03-01T08:56:11;11.30;;;7.90;;
25627;SDS011;40915;50.826;4.356;2023-03-01T08:58:38;14.50;;;7.80;;
25627;SDS011;40915;50.826;4.356;2023-03-01T09:01:08;11.87;;;7.90;;
25627;SDS011;40915;50.826;4.356;2023-03-01T09:03:34;13.10;;;8.07;;
25627;SDS011;40915;50.826;4.356;2023-03-01T09:06:00;15.70;;;8.80;;
25627;SDS011;40915;50.826;4.356;2023-03-01T09:08:27;13.20;;;8.17;;
25627;SDS011;40915;50.826;4.356;2023-03-01T09:10:53;16.37;;;8.57;;
25627;SDS011;40915;50.826;4.356;2023-03-01T09:13:19;10.90;;;7.97;;
25627;SDS011;40915;50.826;4.356;2023-03-01T09:15:49;10.20;;;8.00;;
25627;SDS011;40915;50.826;4.356;2023-03-01T09:18:16;15.00;;;8.13;;
25627;SDS011;40915;50.826;4.356;2023-03-01T09:20:41;13.03;;;8.20;;
25627;SDS011;40915;50.826;4.356;2023-03-01T09:23:07;13.37;;;8.13;;
25627;SDS011;40915;50.826;4.356;2023-03-01T09:25:34;16.40;;;8.40;;
25627;SDS011;40915;50.826;4.356;2023-03-01T09:28:00;14.50;;;8.60;;
25627;SDS011;40915;50.826;4.356;2023-03-01T09:30:25;12.93;;;8.30;;
25627;SDS011;40915;50.826;4.356;2023-03-01T09:32:51;14.63;;;9.10;;
25627;SDS011;40915;50.826;4.356;2023-03-01T09:35:17;13.73;;;8.20;;
25627;SDS011;40915;50.826;4.356;2023-03-01T09:37:45;12.27;;;8.73;;
25627;SDS011;40915;50.826;4.356;2023-03-01T09:40:12;14.27;;;9.10;;
25627;SDS011;40915;50.826;4.356;2023-03-01T09:45:38;12.40;;;8.20;;
25627;SDS011;40915;50.826;4.356;2023-03-01T09:48:11;12.67;;;8.87;;
25627;SDS011;40915;50.826;4.356;2023-03-01T09:50:41;14.80;;;9.13;;
25627;SDS011;40915;50.826;4.356;2023-03-01T09:53:16;16.13;;;8.63;;
25627;SDS011;40915;50.826;4.356;2023-03-01T10:01:34;19.57;;;9.20;;
25627;SDS011;40915;50.826;4.356;2023-03-01T10:06:47;13.43;;;9.03;;
25627;SDS011;40915;50.826;4.356;2023-03-01T10:09:23;14.83;;;9.43;;
25627;SDS011;40915;50.826;4.356;2023-03-01T10:11:50;14.60;;;9.43;;
25627;SDS011;40915;50.826;4.356;2023-03-01T10:14:35;15.10;;;9.83;;
25627;SDS011;40915;50.826;4.356;2023-03-01T10:17:12;15.57;;;9.53;;
25627;SDS011;40915;50.826;4.356;2023-03-01T10:20:45;13.90;;;9.00;;
25627;SDS011;40915;50.826;4.356;2023-03-01T10:22:46;14.47;;;9.83;;
25627;SDS011;40915;50.826;4.356;2023-03-01T10:25:15;13.07;;;8.87;;
25627;SDS011;40915;50.826;4.356;2023-03-01T10:27:52;12.70;;;8.60;;
25627;SDS011;40915;50.826;4.356;2023-03-01T10:30:22;15.03;;;9.67;;
25627;SDS011;40915;50.826;4.356;2023-03-01T10:32:59;11.77;;;8.60;;
25627;SDS011;40915;50.826;4.356;2023-03-01T10:35:27;15.67;;;8.90;;
25627;SDS011;40915;50.826;4.356;2023-03-01T10:37:58;13.10;;;9.03;;
25627;SDS011;40915;50.826;4.356;2023-03-01T10:40:23;12.93;;;8.97;;
25627;SDS011;40915;50.826;4.356;2023-03-01T10:42:49;12.27;;;8.53;;
25627;SDS011;40915;50.826;4.356;2023-03-01T10:47:41;16.13;;;8.87;;
25627;SDS011;40915;50.826;4.356;2023-03-01T10:50:17;14.07;;;8.07;;
25627;SDS011;40915;50.826;4.356;2023-03-01T10:52:58;13.57;;;9.10;;
25627;SDS011;40915;50.826;4.356;2023-03-01T10:55:35;13.17;;;8.60;;
25627;SDS011;40915;50.826;4.356;2023-03-01T10:58:17;13.90;;;8.73;;
25627;SDS011;40915;50.826;4.356;2023-03-01T11:00:54;12.93;;;8.47;;
25627;SDS011;40915;50.826;4.356;2023-03-01T11:03:24;12.57;;;8.67;;
25627;SDS011;40915;50.826;4.356;2023-03-01T11:05:53;13.43;;;8.53;;
25627;SDS011;40915;50.826;4.356;2023-03-01T11:08:35;13.57;;;8.70;;
25627;SDS011;40915;50.826;4.356;2023-03-01T11:11:13;12.63;;;8.23;;
25627;SDS011;40915;50.826;4.356;2023-03-01T11:16:23;14.83;;;7.67;;
25627;SDS011;40915;50.826;4.356;2023-03-01T11:18:58;11.07;;;7.97;;
25627;SDS011;40915;50.826;4.356;2023-03-01T11:21:26;15.63;;;8.37;;
25627;SDS011;40915;50.826;4.356;2023-03-01T11:23:55;11.97;;;7.40;;
25627;SDS011;40915;50.826;4.356;2023-03-01T11:26:24;11.07;;;7.80;;
25627;SDS011;40915;50.826;4.356;2023-03-01T11:28:51;12.60;;;7.97;;
25627;SDS011;40915;50.826;4.356;2023-03-01T11:31:20;10.47;;;7.97;;
25627;SDS011;40915;50.826;4.356;2023-03-01T11:33:53;18.17;;;8.60;;
25627;SDS011;40915;50.826;4.356;2023-03-01T11:36:27;11.93;;;7.80;;
25627;SDS011;40915;50.826;4.356;2023-03-01T11:38:57;11.40;;;7.87;;
25627;SDS011;40915;50.826;4.356;2023-03-01T11:41:45;12.47;;;8.67;;
25627;SDS011;40915;50.826;4.356;2023-03-01T11:44:21;11.63;;;8.03;;
25627;SDS011;40915;50.826;4.356;2023-03-01T12:03:17;10.73;;;7.77;;
25627;SDS011;40915;50.826;4.356;2023-03-01T12:16:56;9.70;;;7.40;;
25627;SDS011;40915;50.826;4.356;2023-03-01T12:22:23;12.17;;;7.40;;
25627;SDS011;40915;50.826;4.356;2023-03-01T12:25:11;11.87;;;7.67;;
25627;SDS011;40915;50.826;4.356;2023-03-01T12:38:58;11.53;;;7.40;;
25627;SDS011;40915;50.826;4.356;2023-03-01T12:42:04;11.37;;;6.97;;
25627;SDS011;40915;50.826;4.356;2023-03-01T12:44:52;13.27;;;7.90;;
25627;SDS011;40915;50.826;4.356;2023-03-01T12:50:47;13.13;;;7.93;;
25627;SDS011;40915;50.826;4.356;2023-03-01T12:53:24;12.53;;;7.40;;
25627;SDS011;40915;50.826;4.356;2023-03-01T12:55:53;11.07;;;7.30;;
25627;SDS011;40915;50.826;4.356;2023-03-01T12:58:34;10.57;;;7.30;;
25627;SDS011;40915;50.826;4.356;2023-03-01T13:04:07;15.20;;;6.73;;
25627;SDS011;40915;50.826;4.356;2023-03-01T13:12:02;9.70;;;7.20;;
25627;SDS011;40915;50.826;4.356;2023-03-01T13:16:56;11.33;;;6.90;;
25627;SDS011;40915;50.826;4.356;2023-03-01T13:19:22;10.40;;;7.93;;
25627;SDS011;40915;50.826;4.356;2023-03-01T13:21:50;10.00;;;6.90;;
25627;SDS011;40915;50.826;4.356;2023-03-01T13:24:35;11.10;;;6.83;;
25627;SDS011;40915;50.826;4.356;2023-03-01T13:27:23;9.90;;;7.00;;
25627;SDS011;40915;50.826;4.356;2023-03-01T13:29:51;8.60;;;6.80;;
25627;SDS011;40915;50.826;4.356;2023-03-01T13:32:24;10.60;;;7.10;;
25627;SDS011;40915;50.826;4.356;2023-03-01T13:34:57;11.23;;;7.27;;
25627;SDS011;40915;50.826;4.356;2023-03-01T13:37:29;15.13;;;7.47;;
25627;SDS011;40915;50.826;4.356;2023-03-01T13:40:00;9.60;;;6.63;;
25627;SDS011;40915;50.826;4.356;2023-03-01T13:42:40;16.87;;;7.43;;
25627;SDS011;40915;50.826;4.356;2023-03-01T13:47:58;9.13;;;6.87;;
25627;SDS011;40915;50.826;4.356;2023-03-01T13:50:32;11.73;;;7.20;;
25627;SDS011;40915;50.826;4.356;2023-03-01T13:53:04;10.57;;;7.43;;
25627;SDS011;40915;50.826;4.356;2023-03-01T13:55:42;10.87;;;7.17;;
25627;SDS011;40915;50.826;4.356;2023-03-01T13:58:32;9.93;;;6.90;;
25627;SDS011;40915;50.826;4.356;2023-03-01T14:01:20;10.40;;;6.53;;
25627;SDS011;40915;50.826;4.356;2023-03-01T14:03:56;10.00;;;6.90;;
25627;SDS011;40915;50.826;4.356;2023-03-01T14:06:29;9.67;;;7.03;;
25627;SDS011;40915;50.826;4.356;2023-03-01T14:17:42;11.20;;;7.30;;
25627;SDS011;40915;50.826;4.356;2023-03-01T14:21:01;11.90;;;6.83;;
25627;SDS011;40915;50.826;4.356;2023-03-01T14:23:13;9.20;;;6.90;;
25627;SDS011;40915;50.826;4.356;2023-03-01T14:25:49;10.33;;;7.60;;
25627;SDS011;40915;50.826;4.356;2023-03-01T14:28:24;10.23;;;7.40;;
25627;SDS011;40915;50.826;4.356;2023-03-01T14:30:52;10.50;;;7.20;;
25627;SDS011;40915;50.826;4.356;2023-03-01T14:33:33;12.57;;;7.20;;
25627;SDS011;40915;50.826;4.356;2023-03-01T14:36:08;11.80;;;7.00;;
25627;SDS011;40915;50.826;4.356;2023-03-01T14:41:13;11.03;;;7.50;;
25627;SDS011;40915;50.826;4.356;2023-03-01T14:43:58;9.93;;;7.27;;
25627;SDS011;40915;50.826;4.356;2023-03-01T14:46:30;11.20;;;7.27;;
25627;SDS011;40915;50.826;4.356;2023-03-01T14:49:17;16.80;;;9.07;;
25627;SDS011;40915;50.826;4.356;2023-03-01T14:51:55;13.07;;;7.27;;
25627;SDS011;40915;50.826;4.356;2023-03-01T14:57:13;12.17;;;7.33;;
25627;SDS011;40915;50.826;4.356;2023-03-01T14:59:41;12.27;;;7.07;;
25627;SDS011;40915;50.826;4.356;2023-03-01T15:02:08;11.67;;;7.57;;
25627;SDS011;40915;50.826;4.356;2023-03-01T15:04:42;12.07;;;7.60;;
25627;SDS011;40915;50.826;4.356;2023-03-01T15:07:09;14.23;;;7.63;;
25627;SDS011;40915;50.826;4.356;2023-03-01T15:09:39;9.77;;;6.80;;
25627;SDS011;40915;50.826;4.356;2023-03-01T15:15:21;10.53;;;6.80;;
25627;SDS011;40915;50.826;4.356;2023-03-01T15:17:55;12.43;;;7.60;;
25627;SDS011;40915;50.826;4.356;2023-03-01T15:20:24;10.63;;;7.00;;
25627;SDS011;40915;50.826;4.356;2023-03-01T15:22:53;12.40;;;7.17;;
25627;SDS011;40915;50.826;4.356;2023-03-01T15:25:21;10.07;;;7.03;;
25627;SDS011;40915;50.826;4.356;2023-03-01T15:27:50;9.47;;;7.10;;
25627;SDS011;40915;50.826;4.356;2023-03-01T15:30:17;11.73;;;7.53;;
25627;SDS011;40915;50.826;4.356;2023-03-01T15:35:59;14.10;;;7.60;;
25627;SDS011;40915;50.826;4.356;2023-03-01T15:38:53;12.20;;;7.73;;
25627;SDS011;40915;50.826;4.356;2023-03-01T15:41:26;11.10;;;7.73;;
25627;SDS011;40915;50.826;4.356;2023-03-01T15:43:52;15.07;;;7.93;;
25627;SDS011;40915;50.826;4.356;2023-03-01T15:48:55;12.03;;;7.83;;
25627;SDS011;40915;50.826;4.356;2023-03-01T15:51:26;11.03;;;7.43;;
25627;SDS011;40915;50.826;4.356;2023-03-01T15:54:04;13.90;;;8.00;;
25627;SDS011;40915;50.826;4.356;2023-03-01T15:56:46;14.80;;;8.10;;
25627;SDS011;40915;50.826;4.356;2023-03-01T15:59:12;12.27;;;7.60;;
25627;SDS011;40915;50.826;4.356;2023-03-01T16:01:41;9.07;;;7.17;;
25627;SDS011;40915;50.826;4.356;2023-03-01T16:04:09;12.17;;;7.70;;
25627;SDS011;40915;50.826;4.356;2023-03-01T16:06:38;13.13;;;7.30;;
25627;SDS011;40915;50.826;4.356;2023-03-01T16:09:04;11.00;;;7.30;;
25627;SDS011;40915;50.826;4.356;2023-03-01T16:11:30;12.40;;;8.02;;
25627;SDS011;40915;50.826;4.356;2023-03-01T16:13:57;13.80;;;7.53;;
25627;SDS011;40915;50.826;4.356;2023-03-01T16:16:23;11.03;;;7.40;;
25627;SDS011;40915;50.826;4.356;2023-03-01T16:18:49;11.43;;;7.40;;
25627;SDS011;40915;50.826;4.356;2023-03-01T16:21:19;10.07;;;6.83;;
25627;SDS011;40915;50.826;4.356;2023-03-01T16:23:48;13.90;;;7.30;;
25627;SDS011;40915;50.826;4.356;2023-03-01T16:26:14;9.47;;;6.93;;
25627;SDS011;40915;50.826;4.356;2023-03-01T16:28:41;8.00;;;6.23;;
25627;SDS011;40915;50.826;4.356;2023-03-01T16:31:07;10.47;;;6.33;;
25627;SDS011;40915;50.826;4.356;2023-03-01T16:33:34;8.33;;;6.27;;
25627;SDS011;40915;50.826;4.356;2023-03-01T16:36:06;9.20;;;6.43;;
25627;SDS011;40915;50.826;4.356;2023-03-01T16:38:36;10.70;;;6.83;;
25627;SDS011;40915;50.826;4.356;2023-03-01T16:41:04;20.30;;;11.53;;
25627;SDS011;40915;50.826;4.356;2023-03-01T16:43:30;10.10;;;7.20;;
25627;SDS011;40915;50.826;4.356;2023-03-01T16:45:56;11.50;;;7.07;;
25627;SDS011;40915;50.826;4.356;2023-03-01T16:48:23;12.53;;;7.07;;